Terminal Aerodrome Forecast
Issued by NWS Spokane, WA

Home | Current Version | Previous Version | Text Only | Print | Product List | Glossary On
Versions: 1 2 3 4 5 6 7 8 9 10 11 12 13 14 15 16 17 18 19 20 21 22 23 24
637
FTUS46 KOTX 251134
TAFEAT
TAF
KEAT 251134Z 2512/2612 31005KT P6SM SKC
     FM252000 14003KT P6SM FEW250
     FM260600 31007KT P6SM FEW150 SCT250=

USA.gov is the U.S. government's official web portal to all federal, state and local government web resources and services.